Address 0x2eb73cdf547e81789edd0d2670ae8bf045d52e0d 9

 
 
Txn Hash Method
Block
From
To
Value [Txn Fee]
0xd76ba8a0fc49644b211e9eee8b643474424045083a6750048224cfe2e0cf1b78Any Swap Out Und...233147022022-01-03 21:41:5123 days 12 hrs ago0x2eb73cdf547e81789edd0d2670ae8bf045d52e0dOUT 0x4f3aff3a747fcade12598081e80c6605a8be192f0 MATIC0.0341888400
0xd27cdd9f104bbc72924cf5038cf885b17396bd4ab275cce2fa65d25bb2d0c712Swap Exact Token...233140352022-01-03 21:16:2723 days 13 hrs ago0x2eb73cdf547e81789edd0d2670ae8bf045d52e0dOUT QuickSwap: Router0 MATIC0.045031592248
0x01f0555dfbb0344267f3389310df5d054cc07d0642abc7a1f2b02cc3cecd96feAny Swap Out Und...233025752022-01-03 14:08:1323 days 20 hrs ago0x2eb73cdf547e81789edd0d2670ae8bf045d52e0dOUT 0x4f3aff3a747fcade12598081e80c6605a8be192f0 MATIC0.00845376120
0x8b6729a8064b3c16f90dbd610ad78d965bf3849bab5b21f85e4a0ba8c842c7b8Approve233025352022-01-03 14:06:5323 days 20 hrs ago0x2eb73cdf547e81789edd0d2670ae8bf045d52e0dOUT USD Coin0 MATIC0.0046756880
0xc700dd3a9648efec677f62204b9c276bdec427033eb0aeed7777bdc6b5385349Swap Tokens For ...233024802022-01-03 14:03:2523 days 20 hrs ago0x2eb73cdf547e81789edd0d2670ae8bf045d52e0dOUT QuickSwap: Router0 MATIC0.0117971460
0xf0ea5421def77904b197c12549dbf51f2547867e72cf6dbdb82080dc0f8e687bSwap Exact Token...232620832022-01-02 13:05:3124 days 21 hrs ago0x2eb73cdf547e81789edd0d2670ae8bf045d52e0dOUT QuickSwap: Router0 MATIC0.013332480
0x22933cb6c1779b4febe7112470c07e96b7e184bea7a16fb0ff9a74d1744e073dSwap Exact Token...232327082022-01-01 19:15:1025 days 15 hrs ago0x2eb73cdf547e81789edd0d2670ae8bf045d52e0dOUT QuickSwap: Router0 MATIC0.0061471860
0xe5ba8a179b253d1bde40a32b395d3976484e6ac5e3cc17e886b3baceae53ea5bSwap Exact Token...231783192021-12-31 10:12:0527 days 26 mins ago0x2eb73cdf547e81789edd0d2670ae8bf045d52e0dOUT QuickSwap: Router0 MATIC0.0076528880
0x4336d845a6208230149e8e13cb67c4f2ad7d5181cf5c3592f4da6a9b520fd6d1Transfer231767762021-12-31 9:19:0327 days 1 hr ago0x2eb73cdf547e81789edd0d2670ae8bf045d52e0dOUT0x8ee9432061fef190811f99ebbfd0738ce39925a4193 MATIC0.0006330
0x4f03d4d41361c349245aad93791463e8cbd6aa7e8e0572d9795d17bc1c88500aSwap Tokens For ...231767562021-12-31 9:18:1927 days 1 hr ago0x2eb73cdf547e81789edd0d2670ae8bf045d52e0dOUT QuickSwap: Router0 MATIC0.0054355230
0x2f244763c2c36243bb33afd0c9e33ec6315c19480f8d331cfea533ad2554e96aTransfer231764242021-12-31 9:06:5527 days 1 hr ago0x2eb73cdf547e81789edd0d2670ae8bf045d52e0dOUT0x6e4f92c2bc506c6b10b2e1f95aa4b659cc4cddb646 MATIC0.0006330
0xd6df83d70307ecc1775c9d7201de2bad914b0430179451f199f07640804444e5Swap Exact Token...231764022021-12-31 9:06:1127 days 1 hr ago0x2eb73cdf547e81789edd0d2670ae8bf045d52e0dOUT QuickSwap: Router0 MATIC0.0073191630
0xc67127890bbdc34c326ec99bf43ed1ac9275d4c4f1b1f3e4ea7ed6403e09c706Transfer231763922021-12-31 9:05:5127 days 1 hr ago0x2eb73cdf547e81789edd0d2670ae8bf045d52e0dOUT0x6e4f92c2bc506c6b10b2e1f95aa4b659cc4cddb6147 MATIC0.0006330
0xe306840592531fc12065fed3e62ac7b6a667d190cc16559766d36b95d2a653c7Swap Tokens For ...231763572021-12-31 9:04:3727 days 1 hr ago0x2eb73cdf547e81789edd0d2670ae8bf045d52e0dOUT QuickSwap: Router0 MATIC0.009059250
0x038378e41f95bf404afb8db0a9b1a80d236c3c8be60e8c07123292150a3ac02eSwap Exact Token...231598352021-12-30 23:24:1427 days 11 hrs ago0x2eb73cdf547e81789edd0d2670ae8bf045d52e0dOUT QuickSwap: Router0 MATIC0.0137480460
0x47147e038ceac862bc0ebc62bfe51791551ef1bc5a4c20f88e0beed5476abe3eApprove231598162021-12-30 23:23:3627 days 11 hrs ago0x2eb73cdf547e81789edd0d2670ae8bf045d52e0dOUT USD Coin0 MATIC0.0017533830
0xdd8607f425af52970baeb6af8af89f8b34e3d6f1c3ab7fe92f595d6f9f90da38Any Swap Out Und...231192892021-12-29 22:38:0028 days 12 hrs ago0x2eb73cdf547e81789edd0d2670ae8bf045d52e0dOUT 0x4f3aff3a747fcade12598081e80c6605a8be192f0 MATIC0.0046240860
0x405d833e51b03ef54980a705bca7eaaa0550c7cf5f4acb791755c88d9e0daddcApprove231192492021-12-29 22:36:4028 days 12 hrs ago0x2eb73cdf547e81789edd0d2670ae8bf045d52e0dOUT Maker: Dai Stablecoin0 MATIC0.002603650
0xeba8d400f6f32ce941fc9f5cbc703ff41f4d9ab8822e3f6d90a677b4b91f66d9Swap Exact Token...231192072021-12-29 22:34:2428 days 12 hrs ago0x2eb73cdf547e81789edd0d2670ae8bf045d52e0dOUT QuickSwap: Router0 MATIC0.0078932770
0x65da1abffe3f71bf52b69f1f8d90c2b6f02c485c1af28a242a57ed002030e573Swap Exact Token...228068112021-12-21 23:26:4936 days 11 hrs ago0x2eb73cdf547e81789edd0d2670ae8bf045d52e0dOUT QuickSwap: Router0 MATIC0.0028719930
0x932a319acb3efa81e239cb17604d2f433ebf9e58d17ffd7cde375237c1e2d82eTransfer228067982021-12-21 23:26:2336 days 11 hrs ago0x2eb73cdf547e81789edd0d2670ae8bf045d52e0dOUT Maker: Dai Stablecoin0 MATIC0.001719330
0x4804974be5daf3fa46b8b934f5b9cff01a418cd95c43efd824699043cb57f07eTransfer228067782021-12-21 23:25:3936 days 11 hrs ago0x2eb73cdf547e81789edd0d2670ae8bf045d52e0dOUT0x7aa1afeabfd31c81917b89af4bc99f9c62798bac0.3 MATIC0.0006330
0x01d1c50a9c1eb5ccf99c224e4585e7abb815f5848696400d86ac6fffd2209903Approve227950532021-12-21 16:20:1336 days 18 hrs ago0x2eb73cdf547e81789edd0d2670ae8bf045d52e0dOUT Gains Network: GNS Token0 MATIC0.0013984830
0xbea0d2abeac6595d53512cf899e69e84fa2bc832f29a6e88866fea1584e774ccSwap Exact Token...227861902021-12-21 11:06:4436 days 23 hrs ago0x2eb73cdf547e81789edd0d2670ae8bf045d52e0dOUT QuickSwap: Router0 MATIC0.0028723530
0x8c34e508180a8e48877c80ba7366cdf2fe1d1717627165487049b710d7dc711cSwap Exact Token...227860832021-12-21 11:03:0236 days 23 hrs ago0x2eb73cdf547e81789edd0d2670ae8bf045d52e0dOUT QuickSwap: Router0 MATIC0.0033219930
[ Download CSV Export 
Latest 3 internal transactions
Parent Txn Hash Block From To Value
0x4f03d4d41361c349245aad93791463e8cbd6aa7e8e0572d9795d17bc1c88500a231767562021-12-31 9:18:1927 days 1 hr ago QuickSwap: Router0x2eb73cdf547e81789edd0d2670ae8bf045d52e0d193 MATIC
0xd6df83d70307ecc1775c9d7201de2bad914b0430179451f199f07640804444e5231764022021-12-31 9:06:1127 days 1 hr ago QuickSwap: Router0x2eb73cdf547e81789edd0d2670ae8bf045d52e0d45.749044586559162441 MATIC
0xe306840592531fc12065fed3e62ac7b6a667d190cc16559766d36b95d2a653c7231763572021-12-31 9:04:3727 days 1 hr ago QuickSwap: Router0x2eb73cdf547e81789edd0d2670ae8bf045d52e0d147 MATIC
[ Download CSV Export 
Loading

Contract Name:
0 MATIC

Compiler Version
0

Optimization Enabled:
0 MATIC

Other Settings:
-NA-
Block Transaction Gas Used Reward
Age Block Fee Address BC Fee Address Voting Power Jailed Incoming
Block Uncle Number Difficulty Gas Used Reward
Loading
Loading
Make sure to use the "Vote Down" button for any spammy posts, and the "Vote Up" for interesting conversations.